Time;durP1;ratioP1;P1;durP2;ratioP2;P2;SDS_P1;SDS_P2;PMS_P1;PMS_P2;Temp;Humidity;BMP_temperature;BMP_pressure;BME280_temperature;BME280_humidity;BME280_pressure;Samples;Min_cycle;Max_cycle;Signal;HPM_P1;HPM_P2
2023/05/01 00:00:17;;;;;;;29.02;11.02;;;;;;;;;;5051247;28;20025;-70
2023/05/01 00:02:43;;;;;;;28.40;10.77;;;;;;;;;;5046179;28;20025;-71
2023/05/01 00:05:10;;;;;;;18.55;9.77;;;;;;;;;;5051282;28;20025;-72
2023/05/01 00:07:36;;;;;;;21.20;10.10;;;;;;;;;;5051262;28;20059;-72
2023/05/01 00:10:02;;;;;;;29.70;10.43;;;;;;;;;;5051377;28;20048;-72
2023/05/01 00:12:28;;;;;;;23.30;10.45;;;;;;;;;;5051151;28;20471;-71
2023/05/01 00:14:54;;;;;;;22.60;10.63;;;;;;;;;;5051354;28;20036;-71
2023/05/01 00:17:21;;;;;;;29.67;10.80;;;;;;;;;;5051249;28;20029;-72
2023/05/01 00:19:50;;;;;;;25.85;10.63;;;;;;;;;;5051171;28;20078;-70
2023/05/01 00:22:16;;;;;;;24.90;9.57;;;;;;;;;;5051008;28;20557;-71
2023/05/01 00:24:43;;;;;;;25.23;10.43;;;;;;;;;;5051284;28;20128;-72
2023/05/01 00:27:09;;;;;;;23.38;9.90;;;;;;;;;;5051963;28;20029;-71
2023/05/01 00:29:35;;;;;;;27.15;11.13;;;;;;;;;;5051251;28;20445;-71
2023/05/01 00:32:01;;;;;;;20.45;9.40;;;;;;;;;;5050899;28;20422;-70
2023/05/01 00:34:27;;;;;;;22.35;10.02;;;;;;;;;;5051186;28;20032;-71
2023/05/01 00:36:53;;;;;;;19.33;9.70;;;;;;;;;;5055063;28;20036;-71
2023/05/01 00:39:19;;;;;;;23.40;10.73;;;;;;;;;;5054906;28;20036;-70
2023/05/01 00:41:45;;;;;;;27.63;11.65;;;;;;;;;;5054795;28;20395;-71
2023/05/01 00:44:11;;;;;;;22.83;11.05;;;;;;;;;;5054985;28;20025;-71
2023/05/01 00:46:37;;;;;;;18.33;9.40;;;;;;;;;;5054846;28;20530;-71
2023/05/01 00:49:04;;;;;;;27.98;10.95;;;;;;;;;;5054681;28;20025;-71
2023/05/01 00:51:30;;;;;;;31.48;11.32;;;;;;;;;;5054775;28;20410;-71
2023/05/01 00:53:59;;;;;;;24.63;10.98;;;;;;;;;;5054449;28;20029;-72
2023/05/01 00:56:25;;;;;;;21.13;10.50;;;;;;;;;;5054688;28;20094;-71
2023/05/01 00:58:54;;;;;;;25.42;10.68;;;;;;;;;;5054359;28;20029;-70
2023/05/01 01:01:20;;;;;;;21.70;10.20;;;;;;;;;;5054368;28;20029;-70
2023/05/01 01:03:47;;;;;;;25.85;10.27;;;;;;;;;;5054197;28;20383;-70
2023/05/01 01:06:16;;;;;;;24.30;10.38;;;;;;;;;;5054649;28;20131;-71
2023/05/01 01:08:54;;;;;;;21.27;10.90;;;;;;;;;;5054093;28;20119;-73
2023/05/01 01:11:24;;;;;;;22.48;10.63;;;;;;;;;;5054254;28;20032;-71
2023/05/01 01:14:13;;;;;;;18.75;9.68;;;;;;;;;;5054078;28;20017;-73
2023/05/01 01:16:48;;;;;;;21.88;10.23;;;;;;;;;;5054295;28;20035;-71
2023/05/01 01:19:20;;;;;;;21.50;9.70;;;;;;;;;;5054178;28;20027;-70
2023/05/01 01:21:49;;;;;;;25.58;10.63;;;;;;;;;;5053798;28;20025;-71
2023/05/01 01:24:27;;;;;;;22.50;10.15;;;;;;;;;;5054446;28;20029;-70
2023/05/01 01:27:05;;;;;;;24.85;8.98;;;;;;;;;;5054382;28;20033;-71
2023/05/01 01:29:50;;;;;;;16.08;8.60;;;;;;;;;;5053999;28;20056;-71
2023/05/01 01:32:30;;;;;;;18.58;9.20;;;;;;;;;;5053688;28;20115;-71
2023/05/01 01:35:01;;;;;;;19.60;8.52;;;;;;;;;;5054013;28;20017;-71
2023/05/01 01:37:41;;;;;;;19.05;8.23;;;;;;;;;;5053093;28;20083;-70
2023/05/01 01:40:09;;;;;;;22.38;9.30;;;;;;;;;;5055263;28;20021;-72
2023/05/01 01:42:41;;;;;;;23.67;9.43;;;;;;;;;;5055460;28;20033;-70
2023/05/01 01:45:37;;;;;;;20.08;9.35;;;;;;;;;;5053859;28;20028;-71
2023/05/01 01:48:03;;;;;;;;;;;;;;;;;;5044018;28;20103;-70
2023/05/01 01:50:30;;;;;;;19.52;8.93;;;;;;;;;;5053609;28;19998;-71
2023/05/01 01:52:58;;;;;;;22.55;9.15;;;;;;;;;;5053623;28;20025;-70
2023/05/01 01:55:26;;;;;;;22.38;8.60;;;;;;;;;;5053625;28;20113;-70
2023/05/01 01:57:53;;;;;;;20.90;7.97;;;;;;;;;;5053521;28;20033;-72
2023/05/01 02:00:19;;;;;;;22.83;8.98;;;;;;;;;;5053543;28;20063;-71
2023/05/01 02:02:46;;;;;;;19.60;8.75;;;;;;;;;;5053014;28;20054;-71
2023/05/01 02:05:16;;;;;;;29.08;8.65;;;;;;;;;;5053334;28;20032;-71
2023/05/01 02:07:45;;;;;;;17.55;8.13;;;;;;;;;;5053081;28;20033;-71
2023/05/01 02:10:12;;;;;;;16.25;7.75;;;;;;;;;;5053155;28;20037;-70
2023/05/01 02:12:39;;;;;;;17.85;8.07;;;;;;;;;;5053040;28;20466;-70
2023/05/01 02:15:06;;;;;;;17.92;7.65;;;;;;;;;;5053334;28;20029;-69
2023/05/01 02:17:33;;;;;;;18.73;7.75;;;;;;;;;;5033247;28;20088;-70
2023/05/01 02:19:59;;;;;;;19.35;7.07;;;;;;;;;;5033054;28;20079;-73
2023/05/01 02:22:26;;;;;;;23.17;8.43;;;;;;;;;;5051759;28;20060;-70
2023/05/01 02:24:53;;;;;;;21.17;7.82;;;;;;;;;;5052933;28;20491;-70
2023/05/01 02:27:20;;;;;;;19.63;7.60;;;;;;;;;;5052923;28;20036;-71
2023/05/01 02:29:46;;;;;;;18.23;7.43;;;;;;;;;;5052847;28;20017;-71
2023/05/01 02:32:13;;;;;;;18.33;7.53;;;;;;;;;;5052381;28;20115;-71
2023/05/01 02:34:39;;;;;;;20.17;7.18;;;;;;;;;;5052692;28;20549;-71
2023/05/01 02:37:06;;;;;;;22.48;7.85;;;;;;;;;;5052759;28;20036;-71
2023/05/01 02:39:32;;;;;;;23.23;6.95;;;;;;;;;;5052597;28;20082;-71
2023/05/01 02:42:02;;;;;;;16.88;7.30;;;;;;;;;;5052228;28;20025;-71
2023/05/01 02:44:29;;;;;;;22.27;7.05;;;;;;;;;;5052605;28;20024;-70
2023/05/01 02:46:56;;;;;;;18.65;6.95;;;;;;;;;;5052393;28;20514;-72
2023/05/01 02:49:22;;;;;;;17.77;6.65;;;;;;;;;;5052532;28;20296;-71
2023/05/01 02:51:48;;;;;;;17.90;6.90;;;;;;;;;;5052513;28;20032;-71
2023/05/01 02:54:15;;;;;;;17.88;7.45;;;;;;;;;;5052520;28;20160;-71
2023/05/01 02:56:41;;;;;;;16.38;6.72;;;;;;;;;;5052564;28;20036;-71
2023/05/01 02:59:07;;;;;;;14.20;6.20;;;;;;;;;;5050964;28;20033;-70
2023/05/01 03:01:33;;;;;;;19.05;7.03;;;;;;;;;;5052147;28;20029;-70
2023/05/01 03:03:59;;;;;;;18.83;7.28;;;;;;;;;;5052201;28;20020;-70
2023/05/01 03:06:27;;;;;;;16.08;6.55;;;;;;;;;;5052418;28;20118;-70
2023/05/01 03:08:53;;;;;;;16.48;6.60;;;;;;;;;;5052925;28;20524;-72
2023/05/01 03:11:20;;;;;;;24.40;7.03;;;;;;;;;;5053598;28;20025;-70
2023/05/01 03:13:46;;;;;;;14.60;6.25;;;;;;;;;;5055310;28;20100;-70
2023/05/01 03:16:12;;;;;;;29.58;7.15;;;;;;;;;;5055925;28;20035;-70
2023/05/01 03:18:38;;;;;;;18.95;6.63;;;;;;;;;;5054321;28;20071;-71
2023/05/01 03:21:04;;;;;;;15.52;6.50;;;;;;;;;;5053176;28;20048;-71
2023/05/01 03:23:30;;;;;;;19.98;6.78;;;;;;;;;;5052639;28;20367;-71
2023/05/01 03:25:56;;;;;;;14.75;6.57;;;;;;;;;;5053529;28;20446;-72
2023/05/01 03:28:22;;;;;;;19.48;6.45;;;;;;;;;;5053998;28;20025;-71
2023/05/01 03:30:50;;;;;;;25.70;7.07;;;;;;;;;;5053626;28;20036;-71
2023/05/01 03:33:16;;;;;;;16.50;5.85;;;;;;;;;;5052630;28;20394;-71
2023/05/01 03:35:42;;;;;;;17.73;6.22;;;;;;;;;;5052631;28;20029;-71
2023/05/01 03:38:08;;;;;;;16.38;6.28;;;;;;;;;;5052991;28;20086;-71
2023/05/01 03:40:34;;;;;;;14.98;6.15;;;;;;;;;;5052338;28;20025;-70
2023/05/01 03:43:00;;;;;;;19.10;6.03;;;;;;;;;;5051581;28;20395;-69
2023/05/01 03:45:27;;;;;;;16.98;6.47;;;;;;;;;;5051589;28;20033;-70
2023/05/01 03:47:53;;;;;;;14.52;6.18;;;;;;;;;;5052093;28;20031;-70
2023/05/01 03:50:19;;;;;;;15.35;6.13;;;;;;;;;;5051874;28;20033;-71
2023/05/01 03:52:44;;;;;;;18.98;6.35;;;;;;;;;;5051430;28;20036;-71
2023/05/01 03:55:11;;;;;;;14.45;6.05;;;;;;;;;;5051934;28;20566;-70
2023/05/01 03:57:37;;;;;;;20.50;6.47;;;;;;;;;;5052033;28;20025;-71
2023/05/01 04:00:05;;;;;;;19.92;6.40;;;;;;;;;;5051913;28;20071;-71
2023/05/01 04:02:31;;;;;;;22.85;6.95;;;;;;;;;;5051954;28;20041;-71
2023/05/01 04:04:57;;;;;;;15.70;5.88;;;;;;;;;;5051842;28;20017;-70
2023/05/01 04:07:24;;;;;;;16.88;6.40;;;;;;;;;;5051441;28;20167;-71
2023/05/01 04:09:50;;;;;;;17.70;6.47;;;;;;;;;;5051821;28;20017;-70
2023/05/01 04:12:15;;;;;;;17.45;6.22;;;;;;;;;;5055360;28;20024;-76
2023/05/01 04:14:43;;;;;;;24.92;6.28;;;;;;;;;;5052349;28;20025;-72
2023/05/01 04:17:09;;;;;;;14.02;6.22;;;;;;;;;;5055306;28;20059;-73
2023/05/01 04:19:35;;;;;;;15.57;6.10;;;;;;;;;;5058799;28;20039;-75
2023/05/01 04:22:01;;;;;;;22.65;6.28;;;;;;;;;;5054873;28;20033;-72
2023/05/01 04:24:27;;;;;;;19.52;5.70;;;;;;;;;;5056796;28;20475;-74
2023/05/01 04:26:53;;;;;;;16.15;6.18;;;;;;;;;;5052456;28;20071;-72
2023/05/01 04:29:19;;;;;;;20.65;5.90;;;;;;;;;;5060381;28;20546;-72
2023/05/01 04:31:45;;;;;;;22.50;6.10;;;;;;;;;;5056723;28;20372;-72
2023/05/01 04:34:11;;;;;;;11.80;5.50;;;;;;;;;;5056015;28;20044;-73
2023/05/01 04:36:37;;;;;;;22.60;6.90;;;;;;;;;;5056242;28;20029;-74
2023/05/01 04:39:03;;;;;;;21.10;6.70;;;;;;;;;;5056106;28;20029;-73
2023/05/01 04:41:29;;;;;;;15.35;6.05;;;;;;;;;;5053975;28;20057;-73
2023/05/01 04:43:55;;;;;;;15.45;5.82;;;;;;;;;;5055385;28;20438;-74
2023/05/01 04:46:21;;;;;;;15.23;5.90;;;;;;;;;;5055764;28;20550;-71
2023/05/01 04:48:47;;;;;;;20.05;6.63;;;;;;;;;;5055606;28;20063;-73
2023/05/01 04:51:13;;;;;;;17.23;6.57;;;;;;;;;;5055870;28;20048;-71
2023/05/01 04:53:39;;;;;;;18.33;6.20;;;;;;;;;;5054394;28;20064;-72
2023/05/01 04:56:05;;;;;;;21.13;6.93;;;;;;;;;;5054485;28;20032;-73
2023/05/01 04:58:31;;;;;;;17.85;5.90;;;;;;;;;;5054349;28;20332;-74
2023/05/01 05:00:57;;;;;;;18.48;6.05;;;;;;;;;;5054613;28;20032;-72
2023/05/01 05:03:23;;;;;;;18.98;6.07;;;;;;;;;;5054334;28;20492;-73
2023/05/01 05:05:49;;;;;;;19.92;6.80;;;;;;;;;;5054590;28;20021;-72
2023/05/01 05:08:15;;;;;;;16.92;6.43;;;;;;;;;;5054347;28;20486;-71
2023/05/01 05:10:41;;;;;;;18.58;6.25;;;;;;;;;;5051885;28;20036;-74
2023/05/01 05:13:08;;;;;;;16.40;6.25;;;;;;;;;;5053970;28;20589;-74
2023/05/01 05:15:34;;;;;;;17.83;6.15;;;;;;;;;;5056505;28;20510;-74
2023/05/01 05:18:00;;;;;;;16.10;5.85;;;;;;;;;;5054243;28;20044;-72
2023/05/01 05:20:27;;;;;;;19.50;6.88;;;;;;;;;;5055355;28;20024;-72
2023/05/01 05:22:53;;;;;;;24.13;7.13;;;;;;;;;;5054252;28;20035;-73
2023/05/01 05:25:19;;;;;;;16.73;6.22;;;;;;;;;;5054065;28;20071;-73
2023/05/01 05:27:45;;;;;;;19.05;6.18;;;;;;;;;;5058490;28;20056;-73
2023/05/01 05:30:11;;;;;;;14.73;6.22;;;;;;;;;;5056253;28;20475;-70
2023/05/01 05:32:37;;;;;;;21.05;6.18;;;;;;;;;;5054211;28;20037;-70
2023/05/01 05:35:03;;;;;;;15.88;5.85;;;;;;;;;;5054281;28;20025;-71
2023/05/01 05:37:29;;;;;;;16.55;6.55;;;;;;;;;;5062291;28;20087;-73
2023/05/01 05:39:56;;;;;;;17.40;6.25;;;;;;;;;;5056126;28;20092;-72
2023/05/01 05:42:22;;;;;;;14.60;5.60;;;;;;;;;;5053230;28;20360;-71
2023/05/01 05:44:48;;;;;;;22.48;6.43;;;;;;;;;;5053558;28;20120;-71
2023/05/01 05:47:14;;;;;;;14.90;5.70;;;;;;;;;;5053664;28;20116;-71
2023/05/01 05:49:40;;;;;;;18.77;5.63;;;;;;;;;;5053908;28;20032;-71
2023/05/01 05:52:06;;;;;;;16.83;5.95;;;;;;;;;;5053364;28;20064;-71
2023/05/01 05:54:32;;;;;;;23.30;7.35;;;;;;;;;;5053578;28;20037;-71
2023/05/01 05:56:58;;;;;;;17.60;7.43;;;;;;;;;;5053343;28;20032;-71
2023/05/01 05:59:24;;;;;;;18.50;6.78;;;;;;;;;;5053453;28;20104;-70
2023/05/01 06:01:50;;;;;;;18.25;6.03;;;;;;;;;;5053065;28;20451;-70
2023/05/01 06:04:16;;;;;;;14.50;5.63;;;;;;;;;;5053875;28;20050;-70
2023/05/01 06:06:42;;;;;;;13.85;5.30;;;;;;;;;;5053516;28;20035;-71
2023/05/01 06:09:08;;;;;;;16.73;5.60;;;;;;;;;;5053624;28;20419;-71
2023/05/01 06:11:34;;;;;;;18.30;5.38;;;;;;;;;;5053262;28;20090;-72
2023/05/01 06:14:01;;;;;;;12.73;5.07;;;;;;;;;;5053400;28;20071;-71
2023/05/01 06:16:27;;;;;;;15.77;5.43;;;;;;;;;;5053712;28;20028;-76
2023/05/01 06:18:53;;;;;;;15.18;5.63;;;;;;;;;;5056012;28;20032;-74
2023/05/01 06:21:20;;;;;;;17.38;5.35;;;;;;;;;;5055147;28;20507;-70
2023/05/01 06:23:46;;;;;;;21.58;5.38;;;;;;;;;;5053149;28;20618;-71
2023/05/01 06:26:12;;;;;;;20.75;5.05;;;;;;;;;;5053292;28;20021;-72
2023/05/01 06:28:37;;;;;;;15.50;5.20;;;;;;;;;;5054038;28;20352;-71
2023/05/01 06:31:04;;;;;;;18.60;5.15;;;;;;;;;;5053107;28;20031;-69
2023/05/01 06:33:30;;;;;;;15.52;4.93;;;;;;;;;;5052029;28;20024;-71
2023/05/01 06:35:58;;;;;;;15.30;5.00;;;;;;;;;;5052877;28;20025;-72
2023/05/01 06:38:24;;;;;;;17.02;4.82;;;;;;;;;;5053131;28;20036;-69
2023/05/01 06:40:50;;;;;;;14.27;4.72;;;;;;;;;;5052936;28;20115;-71
2023/05/01 06:43:16;;;;;;;17.55;5.28;;;;;;;;;;5052355;28;20029;-70
2023/05/01 06:45:42;;;;;;;14.05;4.38;;;;;;;;;;5052630;28;20025;-71
2023/05/01 06:48:08;;;;;;;15.55;4.43;;;;;;;;;;5052558;28;20056;-70
2023/05/01 06:50:35;;;;;;;20.77;5.45;;;;;;;;;;5052700;28;20100;-70
2023/05/01 06:53:01;;;;;;;14.52;4.70;;;;;;;;;;5052344;28;20432;-72
2023/05/01 06:55:30;;;;;;;16.67;5.72;;;;;;;;;;5052589;28;20483;-72
2023/05/01 06:57:56;;;;;;;16.38;4.47;;;;;;;;;;5052680;28;20538;-72
2023/05/01 07:00:22;;;;;;;19.13;4.47;;;;;;;;;;5052408;28;20530;-72
2023/05/01 07:02:48;;;;;;;16.45;4.45;;;;;;;;;;5052180;28;20032;-70
2023/05/01 07:05:14;;;;;;;12.57;4.43;;;;;;;;;;5052882;28;20033;-71
2023/05/01 07:07:40;;;;;;;17.30;5.97;;;;;;;;;;5052459;28;20502;-71
2023/05/01 07:10:07;;;;;;;11.60;4.50;;;;;;;;;;5052390;28;20490;-70
2023/05/01 07:12:33;;;;;;;15.93;5.25;;;;;;;;;;5051972;28;20033;-72
2023/05/01 07:14:59;;;;;;;20.73;4.63;;;;;;;;;;5052166;28;20033;-72
2023/05/01 07:17:25;;;;;;;16.25;4.57;;;;;;;;;;5052269;28;20029;-72
2023/05/01 07:19:51;;;;;;;13.48;4.30;;;;;;;;;;5052371;28;20025;-72
2023/05/01 07:22:18;;;;;;;20.63;4.90;;;;;;;;;;5051968;28;20025;-71
2023/05/01 07:24:44;;;;;;;13.45;4.47;;;;;;;;;;5051978;28;20466;-70
2023/05/01 07:27:10;;;;;;;16.48;4.55;;;;;;;;;;5047001;28;20033;-72
2023/05/01 07:29:38;;;;;;;17.55;4.43;;;;;;;;;;5051814;28;20025;-70
2023/05/01 07:32:05;;;;;;;18.02;4.13;;;;;;;;;;5056613;28;20032;-72
2023/05/01 07:34:31;;;;;;;23.77;4.90;;;;;;;;;;5071814;28;20036;-69
2023/05/01 07:36:57;;;;;;;13.70;4.10;;;;;;;;;;5053402;28;20031;-71
2023/05/01 07:39:23;;;;;;;14.00;4.03;;;;;;;;;;5050292;28;20021;-71
2023/05/01 07:41:49;;;;;;;13.30;4.45;;;;;;;;;;5051033;28;20414;-70
2023/05/01 07:44:15;;;;;;;12.80;3.70;;;;;;;;;;5052103;28;20028;-72
2023/05/01 07:46:42;;;;;;;16.25;3.90;;;;;;;;;;5052238;28;20029;-71
2023/05/01 07:49:08;;;;;;;17.83;4.53;;;;;;;;;;5051768;28;20036;-71
2023/05/01 07:51:34;;;;;;;13.05;3.95;;;;;;;;;;5052140;28;20395;-71
2023/05/01 07:54:03;;;;;;;13.43;4.20;;;;;;;;;;5051425;28;20701;-70
2023/05/01 07:56:29;;;;;;;15.27;3.78;;;;;;;;;;5051347;28;20041;-72
2023/05/01 07:58:55;;;;;;;12.20;4.30;;;;;;;;;;5050690;28;20052;-71
2023/05/01 08:01:21;;;;;;;13.60;3.92;;;;;;;;;;5050720;28;20036;-72
2023/05/01 08:03:47;;;;;;;12.32;3.70;;;;;;;;;;5050169;28;20079;-72
2023/05/01 08:06:13;;;;;;;12.07;3.80;;;;;;;;;;5050717;28;20099;-73
2023/05/01 08:08:39;;;;;;;12.07;3.90;;;;;;;;;;5051682;28;20116;-72
2023/05/01 08:11:05;;;;;;;13.40;4.30;;;;;;;;;;5051740;28;20063;-72
2023/05/01 08:13:31;;;;;;;8.90;3.22;;;;;;;;;;5051971;28;20332;-72
2023/05/01 08:16:04;;;;;;;16.60;3.83;;;;;;;;;;5052099;28;20072;-72
2023/05/01 08:18:30;;;;;;;12.32;3.67;;;;;;;;;;5052173;28;20371;-75
2023/05/01 08:20:56;;;;;;;13.00;4.00;;;;;;;;;;5053395;28;20113;-74
2023/05/01 08:23:24;;;;;;;16.48;4.25;;;;;;;;;;5053247;28;20052;-75
2023/05/01 08:25:51;;;;;;;11.85;4.25;;;;;;;;;;5053132;28;20021;-75
2023/05/01 08:28:19;;;;;;;14.68;3.88;;;;;;;;;;5052040;28;20021;-73
2023/05/01 08:30:45;;;;;;;10.25;3.58;;;;;;;;;;5051668;28;20040;-73
2023/05/01 08:33:11;;;;;;;10.85;3.85;;;;;;;;;;5052360;28;20029;-74
2023/05/01 08:35:37;;;;;;;10.18;3.95;;;;;;;;;;5052845;28;20037;-74
2023/05/01 08:38:03;;;;;;;12.23;4.30;;;;;;;;;;5051892;28;20025;-74
2023/05/01 08:40:31;;;;;;;15.95;5.03;;;;;;;;;;5051441;28;20039;-76
2023/05/01 08:42:57;;;;;;;11.93;3.72;;;;;;;;;;5051494;28;20063;-73
2023/05/01 08:45:24;;;;;;;14.23;4.10;;;;;;;;;;5051620;28;20104;-69
2023/05/01 08:47:52;;;;;;;10.55;3.97;;;;;;;;;;5051127;28;20025;-70
2023/05/01 08:50:18;;;;;;;12.07;3.90;;;;;;;;;;5050894;28;20025;-70
2023/05/01 08:52:45;;;;;;;17.70;4.38;;;;;;;;;;5050724;28;20028;-71
2023/05/01 08:55:15;;;;;;;11.75;4.40;;;;;;;;;;5050794;28;20470;-69
2023/05/01 08:57:44;;;;;;;9.93;4.38;;;;;;;;;;5054209;28;20086;-71
2023/05/01 09:00:14;;;;;;;12.48;3.78;;;;;;;;;;5054678;28;20482;-72
2023/05/01 09:02:40;;;;;;;21.88;4.95;;;;;;;;;;5054132;28;20079;-71
2023/05/01 09:05:07;;;;;;;16.20;4.60;;;;;;;;;;5055046;28;20021;-76
2023/05/01 09:07:34;;;;;;;15.60;4.18;;;;;;;;;;5056086;28;20158;-73
2023/05/01 09:10:00;;;;;;;12.07;4.03;;;;;;;;;;5054607;28;20067;-70
2023/05/01 09:12:26;;;;;;;13.82;5.10;;;;;;;;;;5054099;28;20417;-70
2023/05/01 09:14:54;;;;;;;17.10;4.63;;;;;;;;;;5054699;28;20095;-71
2023/05/01 09:17:21;;;;;;;15.02;4.50;;;;;;;;;;5054412;28;20051;-70
2023/05/01 09:19:48;;;;;;;16.58;4.40;;;;;;;;;;5054182;28;20039;-70
2023/05/01 09:22:14;;;;;;;9.45;3.55;;;;;;;;;;5053959;28;20497;-71
2023/05/01 09:24:41;;;;;;;17.45;4.25;;;;;;;;;;5054127;28;20027;-72
2023/05/01 09:27:07;;;;;;;12.60;4.03;;;;;;;;;;5054151;28;20435;-71
2023/05/01 09:29:40;;;;;;;14.50;4.47;;;;;;;;;;5054242;28;20087;-71
2023/05/01 09:32:12;;;;;;;18.65;7.53;;;;;;;;;;5052588;28;20410;-71
2023/05/01 09:34:38;;;;;;;11.05;4.22;;;;;;;;;;5052810;28;20029;-71
2023/05/01 09:37:04;;;;;;;18.67;4.90;;;;;;;;;;5054013;28;20032;-73
2023/05/01 09:39:30;;;;;;;14.85;4.25;;;;;;;;;;5053716;28;20052;-74
2023/05/01 09:41:56;;;;;;;13.38;3.65;;;;;;;;;;5053414;28;20433;-77
2023/05/01 09:44:22;;;;;;;15.50;5.20;;;;;;;;;;5053914;28;20017;-73
2023/05/01 09:46:48;;;;;;;13.23;3.88;;;;;;;;;;5054090;28;20071;-70
2023/05/01 09:49:15;;;;;;;12.75;3.33;;;;;;;;;;5053402;28;20451;-70
2023/05/01 09:51:42;;;;;;;11.13;3.67;;;;;;;;;;5053854;28;20029;-71
2023/05/01 09:54:18;;;;;;;14.32;4.22;;;;;;;;;;5053518;28;20028;-71
2023/05/01 09:56:47;;;;;;;11.55;3.53;;;;;;;;;;5053611;28;20462;-72
2023/05/01 09:59:15;;;;;;;17.20;3.97;;;;;;;;;;5053490;28;20029;-71
2023/05/01 10:01:42;;;;;;;27.52;7.40;;;;;;;;;;5053312;28;20029;-71
2023/05/01 10:04:08;;;;;;;15.43;6.03;;;;;;;;;;5053312;28;20052;-71
2023/05/01 10:06:35;;;;;;;14.82;6.35;;;;;;;;;;5053112;28;20104;-72
2023/05/01 10:09:02;;;;;;;13.63;4.78;;;;;;;;;;5052004;28;20087;-73
2023/05/01 10:11:28;;;;;;;11.77;3.80;;;;;;;;;;5053141;28;20471;-72
2023/05/01 10:14:07;;;;;;;16.83;4.80;;;;;;;;;;5053031;28;20029;-71
2023/05/01 10:16:34;;;;;;;10.07;3.83;;;;;;;;;;5053327;28;20391;-72
2023/05/01 10:19:01;;;;;;;11.45;3.67;;;;;;;;;;5053295;28;20487;-71
2023/05/01 10:21:27;;;;;;;10.32;4.45;;;;;;;;;;5053092;28;20036;-71
2023/05/01 10:23:54;;;;;;;10.32;3.47;;;;;;;;;;5052767;28;20068;-72
2023/05/01 10:26:20;;;;;;;17.90;6.18;;;;;;;;;;5052891;28;20028;-69
2023/05/01 10:28:47;;;;;;;11.02;3.95;;;;;;;;;;5052969;28;20078;-71
2023/05/01 10:31:14;;;;;;;10.05;3.72;;;;;;;;;;5052960;28;20044;-71
2023/05/01 10:33:40;;;;;;;13.02;3.70;;;;;;;;;;5052567;28;20032;-70
2023/05/01 10:36:10;;;;;;;13.82;4.25;;;;;;;;;;5052819;28;20017;-72
2023/05/01 10:38:37;;;;;;;11.68;3.85;;;;;;;;;;5053149;28;20028;-72
2023/05/01 10:41:05;;;;;;;15.98;3.33;;;;;;;;;;5053533;28;20021;-72
2023/05/01 10:43:31;;;;;;;17.25;3.95;;;;;;;;;;5052982;28;20025;-71
2023/05/01 10:46:09;;;;;;;11.68;3.28;;;;;;;;;;5052961;28;20027;-76
2023/05/01 10:48:38;;;;;;;9.95;3.22;;;;;;;;;;5053045;28;20079;-72
2023/05/01 10:51:10;;;;;;;14.82;3.50;;;;;;;;;;5052570;28;20044;-72
2023/05/01 10:53:40;;;;;;;17.17;4.10;;;;;;;;;;5052324;28;20425;-71
2023/05/01 10:56:26;;;;;;;15.18;4.20;;;;;;;;;;5052673;28;20029;-70
2023/05/01 10:58:52;;;;;;;12.68;3.03;;;;;;;;;;5052523;28;20029;-71
2023/05/01 11:01:28;;;;;;;8.85;3.70;;;;;;;;;;5052640;28;20478;-72
2023/05/01 11:03:55;;;;;;;11.43;3.42;;;;;;;;;;5053026;28;20406;-72
2023/05/01 11:06:22;;;;;;;11.98;3.35;;;;;;;;;;5052213;28;20028;-74
2023/05/01 11:08:48;;;;;;;9.43;3.45;;;;;;;;;;5043307;28;20506;-72
2023/05/01 11:11:20;;;;;;;13.20;3.50;;;;;;;;;;5049895;28;20359;-74
2023/05/01 11:13:55;;;;;;;7.13;3.08;;;;;;;;;;5045533;28;20108;-72
2023/05/01 11:16:40;;;;;;;12.30;3.10;;;;;;;;;;5056195;28;20052;-71
2023/05/01 11:19:06;;;;;;;10.38;3.33;;;;;;;;;;5059732;28;20021;-71
2023/05/01 11:21:33;;;;;;;10.00;3.08;;;;;;;;;;5038994;28;20021;-71
2023/05/01 11:24:00;;;;;;;8.55;3.40;;;;;;;;;;5048424;28;20017;-73
2023/05/01 11:26:27;;;;;;;11.95;3.78;;;;;;;;;;5050817;28;20017;-71
2023/05/01 11:28:54;;;;;;;11.95;3.00;;;;;;;;;;5050796;28;20028;-73
2023/05/01 11:31:21;;;;;;;12.35;3.90;;;;;;;;;;5037466;28;20068;-72
2023/05/01 11:33:47;;;;;;;9.80;3.13;;;;;;;;;;5050286;28;20416;-73
2023/05/01 11:36:13;;;;;;;15.00;3.55;;;;;;;;;;5049451;28;20044;-72
2023/05/01 11:38:50;;;;;;;13.68;3.95;;;;;;;;;;5042382;28;20477;-72
2023/05/01 11:41:19;;;;;;;11.55;3.42;;;;;;;;;;5053537;28;20036;-73
2023/05/01 11:43:50;;;;;;;9.00;3.30;;;;;;;;;;5044515;28;20102;-72
2023/05/01 11:46:23;;;;;;;10.20;3.30;;;;;;;;;;5045317;28;20478;-71
2023/05/01 11:48:50;;;;;;;7.97;3.10;;;;;;;;;;5054954;28;20016;-72
2023/05/01 11:51:17;;;;;;;11.23;3.28;;;;;;;;;;5041019;28;20020;-72
2023/05/01 11:53:57;;;;;;;11.10;3.20;;;;;;;;;;5040704;28;20076;-74
2023/05/01 11:56:23;;;;;;;12.80;2.65;;;;;;;;;;5032347;28;20017;-72
2023/05/01 11:58:49;;;;;;;12.35;3.53;;;;;;;;;;5031907;28;20472;-72
2023/05/01 12:01:16;;;;;;;9.43;3.45;;;;;;;;;;5051376;28;20032;-71
2023/05/01 12:03:43;;;;;;;14.45;3.58;;;;;;;;;;5054240;28;20042;-71
2023/05/01 12:06:10;;;;;;;8.75;2.72;;;;;;;;;;5071629;28;20021;-73
2023/05/01 12:08:37;;;;;;;12.07;3.40;;;;;;;;;;5071631;28;20051;-74
2023/05/01 12:11:03;;;;;;;11.07;3.05;;;;;;;;;;5071394;28;20474;-71
2023/05/01 12:13:29;;;;;;;9.25;2.90;;;;;;;;;;5071015;28;20032;-71
2023/05/01 12:15:55;;;;;;;10.68;3.00;;;;;;;;;;5071633;28;20036;-73
2023/05/01 12:18:21;;;;;;;10.77;3.25;;;;;;;;;;5071328;28;20031;-72
2023/05/01 12:20:53;;;;;;;8.93;2.95;;;;;;;;;;5071612;28;20028;-72
2023/05/01 12:23:19;;;;;;;8.73;3.08;;;;;;;;;;5071245;28;20028;-72
2023/05/01 12:25:46;;;;;;;12.60;3.63;;;;;;;;;;5071479;28;20028;-72
2023/05/01 12:28:13;;;;;;;8.80;3.17;;;;;;;;;;5071222;28;20387;-70
2023/05/01 12:30:40;;;;;;;8.57;2.80;;;;;;;;;;5071479;28;20028;-71
2023/05/01 12:33:09;;;;;;;10.20;3.20;;;;;;;;;;5074942;28;20024;-71
2023/05/01 12:35:35;;;;;;;10.65;3.20;;;;;;;;;;5075512;28;20424;-71
2023/05/01 12:38:09;;;;;;;9.20;2.65;;;;;;;;;;5074945;28;20075;-71
2023/05/01 12:40:35;;;;;;;8.60;2.72;;;;;;;;;;5074878;28;20036;-71
2023/05/01 12:43:01;;;;;;;8.88;2.65;;;;;;;;;;5062343;28;20025;-70
2023/05/01 12:45:27;;;;;;;9.70;2.63;;;;;;;;;;5074942;28;20052;-69
2023/05/01 12:47:53;;;;;;;6.40;2.70;;;;;;;;;;5063643;28;20083;-70
2023/05/01 12:50:19;;;;;;;7.57;2.67;;;;;;;;;;5054498;28;20025;-71
2023/05/01 12:52:45;;;;;;;8.50;3.70;;;;;;;;;;5054362;28;20443;-72
2023/05/01 12:55:12;;;;;;;4.93;2.08;;;;;;;;;;5054787;28;20033;-71
2023/05/01 12:57:51;;;;;;;9.45;3.20;;;;;;;;;;5054285;28;20561;-71
2023/05/01 13:00:18;;;;;;;6.97;3.22;;;;;;;;;;5054459;28;20039;-71
2023/05/01 13:02:44;;;;;;;10.45;2.70;;;;;;;;;;5053713;28;20024;-71
2023/05/01 13:05:11;;;;;;;8.73;2.25;;;;;;;;;;5054366;28;20025;-73
2023/05/01 13:07:41;;;;;;;12.52;2.42;;;;;;;;;;5054544;28;20025;-72
2023/05/01 13:10:07;;;;;;;7.00;2.17;;;;;;;;;;5054460;28;20025;-71
2023/05/01 13:12:33;;;;;;;6.47;2.20;;;;;;;;;;5053815;28;20434;-70
2023/05/01 13:14:59;;;;;;;3.80;1.83;;;;;;;;;;5054196;28;20068;-71
2023/05/01 13:17:29;;;;;;;9.10;2.17;;;;;;;;;;5054351;28;20514;-71
2023/05/01 13:19:55;;;;;;;7.05;1.95;;;;;;;;;;5054036;28;20410;-72
2023/05/01 13:22:38;;;;;;;12.68;4.28;;;;;;;;;;5053833;28;20029;-72
2023/05/01 13:25:05;;;;;;;7.57;1.92;;;;;;;;;;5054359;28;20029;-72
2023/05/01 13:27:31;;;;;;;7.75;2.17;;;;;;;;;;5054405;28;20025;-70
2023/05/01 13:29:58;;;;;;;6.95;1.95;;;;;;;;;;5053794;28;20441;-72
2023/05/01 13:32:24;;;;;;;6.00;1.63;;;;;;;;;;5053657;28;20059;-72
2023/05/01 13:34:52;;;;;;;3.95;1.45;;;;;;;;;;5053732;28;20029;-71
2023/05/01 13:37:18;;;;;;;3.45;1.48;;;;;;;;;;5053846;28;20029;-72
2023/05/01 13:39:45;;;;;;;5.95;1.63;;;;;;;;;;5053587;28;20131;-71
2023/05/01 13:42:12;;;;;;;5.50;1.60;;;;;;;;;;5053177;28;20032;-71
2023/05/01 13:44:46;;;;;;;9.15;3.00;;;;;;;;;;5053897;28;20506;-71
2023/05/01 13:47:16;;;;;;;10.50;2.17;;;;;;;;;;5053793;28;20029;-73
2023/05/01 13:49:43;;;;;;;9.50;1.80;;;;;;;;;;5053720;28;20150;-73
2023/05/01 13:52:14;;;;;;;4.80;1.77;;;;;;;;;;5052251;28;20024;-72
2023/05/01 13:54:41;;;;;;;9.98;2.20;;;;;;;;;;5053667;28;20021;-70
2023/05/01 13:57:08;;;;;;;5.25;1.70;;;;;;;;;;5053656;28;20036;-71
2023/05/01 13:59:41;;;;;;;7.13;1.65;;;27.10;99.90;;;;;;5053633;28;20032;-74
2023/05/01 14:02:16;;;;;;;7.30;1.98;;;31.00;99.90;;;;;;5053131;28;20029;-71
2023/05/01 14:04:43;;;;;;;11.25;2.25;;;31.00;1.00;;;;;;5053822;28;20040;-76
2023/05/01 14:07:11;;;;;;;5.03;2.13;;;;;;;;;;5053891;28;20108;-74
2023/05/01 14:09:40;;;;;;;4.68;1.60;;;31.60;99.90;;;;;;5053595;28;20163;-77
2023/05/01 14:12:05;;;;;;;6.63;2.22;;;31.70;99.90;;;;;;5053026;28;20631;-75
2023/05/01 14:14:33;;;;;;;6.50;1.90;;;31.30;99.90;;;;;;5051403;28;20039;-75
2023/05/01 14:16:59;;;;;;;5.68;1.85;;;31.10;99.90;;;;;;5051040;28;20021;-73
2023/05/01 14:19:26;;;;;;;4.10;1.73;;;30.90;99.90;;;;;;5053594;28;20039;-72
2023/05/01 14:21:51;;;;;;;8.05;2.30;;;30.10;99.90;;;;;;5049237;28;20100;-73
2023/05/01 14:24:17;;;;;;;6.72;1.83;;;30.00;99.90;;;;;;5052901;28;20558;-74
2023/05/01 14:26:44;;;;;;;4.13;1.70;;;29.70;99.90;;;;;;5053803;28;20090;-71